sensor_id;sensor_type;location;lat;lon;timestamp;temperature;humidity
81951;DHT22;71452;52.562;5.642;2023-09-12T00:01:46;21.90;72.30
81951;DHT22;71452;52.562;5.642;2023-09-12T00:04:18;21.90;72.30
81951;DHT22;71452;52.562;5.642;2023-09-12T00:06:47;21.90;72.30
81951;DHT22;71452;52.562;5.642;2023-09-12T00:09:16;21.90;72.30
81951;DHT22;71452;52.562;5.642;2023-09-12T00:11:45;21.90;72.30
81951;DHT22;71452;52.562;5.642;2023-09-12T00:14:15;21.90;72.20
81951;DHT22;71452;52.562;5.642;2023-09-12T00:16:44;21.90;72.20
81951;DHT22;71452;52.562;5.642;2023-09-12T00:19:13;21.90;72.20
81951;DHT22;71452;52.562;5.642;2023-09-12T00:21:45;21.80;72.30
81951;DHT22;71452;52.562;5.642;2023-09-12T00:24:15;21.70;72.50
81951;DHT22;71452;52.562;5.642;2023-09-12T00:26:45;21.70;72.50
81951;DHT22;71452;52.562;5.642;2023-09-12T00:29:14;21.70;72.50
81951;DHT22;71452;52.562;5.642;2023-09-12T00:31:43;21.70;72.50
81951;DHT22;71452;52.562;5.642;2023-09-12T00:34:16;21.70;72.50
81951;DHT22;71452;52.562;5.642;2023-09-12T00:36:48;21.70;72.50
81951;DHT22;71452;52.562;5.642;2023-09-12T00:39:17;21.70;72.40
81951;DHT22;71452;52.562;5.642;2023-09-12T00:41:46;21.70;72.50
81951;DHT22;71452;52.562;5.642;2023-09-12T00:44:15;21.70;72.50
81951;DHT22;71452;52.562;5.642;2023-09-12T00:46:44;21.70;72.50
81951;DHT22;71452;52.562;5.642;2023-09-12T00:49:15;21.70;72.50
81951;DHT22;71452;52.562;5.642;2023-09-12T00:51:49;21.70;72.50
81951;DHT22;71452;52.562;5.642;2023-09-12T00:54:19;21.60;72.50
81951;DHT22;71452;52.562;5.642;2023-09-12T00:56:48;21.50;72.50
81951;DHT22;71452;52.562;5.642;2023-09-12T00:59:18;21.50;72.50
81951;DHT22;71452;52.562;5.642;2023-09-12T01:01:47;21.50;72.50
81951;DHT22;71452;52.562;5.642;2023-09-12T01:04:16;21.50;72.50
81951;DHT22;71452;52.562;5.642;2023-09-12T01:06:48;21.50;72.40
81951;DHT22;71452;52.562;5.642;2023-09-12T01:09:17;21.50;72.40
81951;DHT22;71452;52.562;5.642;2023-09-12T01:11:47;21.40;72.40
81951;DHT22;71452;52.562;5.642;2023-09-12T01:14:16;21.40;72.50
81951;DHT22;71452;52.562;5.642;2023-09-12T01:16:45;21.30;72.50
81951;DHT22;71452;52.562;5.642;2023-09-12T01:19:14;21.30;72.70
81951;DHT22;71452;52.562;5.642;2023-09-12T01:22:16;21.20;72.70
81951;DHT22;71452;52.562;5.642;2023-09-12T01:25:14;21.10;72.70
81951;DHT22;71452;52.562;5.642;2023-09-12T01:27:51;21.10;72.80
81951;DHT22;71452;52.562;5.642;2023-09-12T01:30:22;21.00;72.90
81951;DHT22;71452;52.562;5.642;2023-09-12T01:32:52;21.00;72.90
81951;DHT22;71452;52.562;5.642;2023-09-12T01:35:24;21.00;73.00
81951;DHT22;71452;52.562;5.642;2023-09-12T01:37:53;21.00;73.00
81951;DHT22;71452;52.562;5.642;2023-09-12T01:40:32;20.90;73.00
81951;DHT22;71452;52.562;5.642;2023-09-12T01:43:05;20.90;73.10
81951;DHT22;71452;52.562;5.642;2023-09-12T01:45:35;20.90;73.10
81951;DHT22;71452;52.562;5.642;2023-09-12T01:48:06;20.90;73.20
81951;DHT22;71452;52.562;5.642;2023-09-12T01:50:37;20.90;73.20
81951;DHT22;71452;52.562;5.642;2023-09-12T01:53:06;20.80;73.20
81951;DHT22;71452;52.562;5.642;2023-09-12T01:55:35;20.80;73.20
81951;DHT22;71452;52.562;5.642;2023-09-12T01:58:08;20.80;73.30
81951;DHT22;71452;52.562;5.642;2023-09-12T02:00:38;20.80;73.30
81951;DHT22;71452;52.562;5.642;2023-09-12T02:03:07;20.80;73.20
81951;DHT22;71452;52.562;5.642;2023-09-12T02:05:36;20.70;73.20
81951;DHT22;71452;52.562;5.642;2023-09-12T02:08:05;20.70;73.30
81951;DHT22;71452;52.562;5.642;2023-09-12T02:10:35;20.70;73.40
81951;DHT22;71452;52.562;5.642;2023-09-12T02:13:08;20.60;73.50
81951;DHT22;71452;52.562;5.642;2023-09-12T02:15:37;20.60;73.60
81951;DHT22;71452;52.562;5.642;2023-09-12T02:18:06;20.60;73.60
81951;DHT22;71452;52.562;5.642;2023-09-12T02:20:38;20.60;73.60
81951;DHT22;71452;52.562;5.642;2023-09-12T02:23:07;20.60;73.70
81951;DHT22;71452;52.562;5.642;2023-09-12T02:25:37;20.60;73.70
81951;DHT22;71452;52.562;5.642;2023-09-12T02:28:09;20.60;73.70
81951;DHT22;71452;52.562;5.642;2023-09-12T02:30:38;20.60;73.70
81951;DHT22;71452;52.562;5.642;2023-09-12T02:33:08;20.50;73.70
81951;DHT22;71452;52.562;5.642;2023-09-12T02:35:37;20.50;73.80
81951;DHT22;71452;52.562;5.642;2023-09-12T02:38:06;20.50;73.80
81951;DHT22;71452;52.562;5.642;2023-09-12T02:40:35;20.40;73.90
81951;DHT22;71452;52.562;5.642;2023-09-12T02:43:04;20.40;73.90
81951;DHT22;71452;52.562;5.642;2023-09-12T02:45:36;20.30;73.90
81951;DHT22;71452;52.562;5.642;2023-09-12T02:48:05;20.30;73.90
81951;DHT22;71452;52.562;5.642;2023-09-12T02:50:34;20.40;73.90
81951;DHT22;71452;52.562;5.642;2023-09-12T02:53:03;20.40;73.90
81951;DHT22;71452;52.562;5.642;2023-09-12T02:55:32;20.30;73.80
81951;DHT22;71452;52.562;5.642;2023-09-12T02:58:02;20.30;73.90
81951;DHT22;71452;52.562;5.642;2023-09-12T03:00:31;20.30;73.90
81951;DHT22;71452;52.562;5.642;2023-09-12T03:03:03;20.30;73.90
81951;DHT22;71452;52.562;5.642;2023-09-12T03:05:32;20.30;73.90
81951;DHT22;71452;52.562;5.642;2023-09-12T03:08:01;20.30;74.00
81951;DHT22;71452;52.562;5.642;2023-09-12T03:10:30;20.30;74.00
81951;DHT22;71452;52.562;5.642;2023-09-12T03:12:59;20.40;73.90
81951;DHT22;71452;52.562;5.642;2023-09-12T03:15:28;20.40;74.00
81951;DHT22;71452;52.562;5.642;2023-09-12T03:18:11;20.40;73.90
81951;DHT22;71452;52.562;5.642;2023-09-12T03:20:40;20.40;73.90
81951;DHT22;71452;52.562;5.642;2023-09-12T03:23:09;20.30;73.80
81951;DHT22;71452;52.562;5.642;2023-09-12T03:25:39;20.30;73.70
81951;DHT22;71452;52.562;5.642;2023-09-12T03:28:08;20.30;73.80
81951;DHT22;71452;52.562;5.642;2023-09-12T03:30:39;20.30;73.80
81951;DHT22;71452;52.562;5.642;2023-09-12T03:33:11;20.30;73.70
81951;DHT22;71452;52.562;5.642;2023-09-12T03:35:43;20.30;73.80
81951;DHT22;71452;52.562;5.642;2023-09-12T03:38:12;20.30;73.80
81951;DHT22;71452;52.562;5.642;2023-09-12T03:40:41;20.20;73.70
81951;DHT22;71452;52.562;5.642;2023-09-12T03:43:11;20.20;73.70
81951;DHT22;71452;52.562;5.642;2023-09-12T03:45:40;20.10;73.70
81951;DHT22;71452;52.562;5.642;2023-09-12T03:48:12;20.10;73.70
81951;DHT22;71452;52.562;5.642;2023-09-12T03:50:41;20.10;73.70
81951;DHT22;71452;52.562;5.642;2023-09-12T03:53:10;20.00;73.80
81951;DHT22;71452;52.562;5.642;2023-09-12T03:55:39;20.00;73.80
81951;DHT22;71452;52.562;5.642;2023-09-12T03:58:08;20.00;73.70
81951;DHT22;71452;52.562;5.642;2023-09-12T04:00:37;19.90;73.80
81951;DHT22;71452;52.562;5.642;2023-09-12T04:03:06;19.90;74.00
81951;DHT22;71452;52.562;5.642;2023-09-12T04:05:38;19.90;74.00
81951;DHT22;71452;52.562;5.642;2023-09-12T04:08:07;19.90;73.90
81951;DHT22;71452;52.562;5.642;2023-09-12T04:10:36;19.90;73.80
81951;DHT22;71452;52.562;5.642;2023-09-12T04:13:05;19.80;73.90
81951;DHT22;71452;52.562;5.642;2023-09-12T04:15:34;19.70;73.90
81951;DHT22;71452;52.562;5.642;2023-09-12T04:18:04;19.70;73.90
81951;DHT22;71452;52.562;5.642;2023-09-12T04:20:33;19.70;74.10
81951;DHT22;71452;52.562;5.642;2023-09-12T04:23:05;19.70;74.20
81951;DHT22;71452;52.562;5.642;2023-09-12T04:25:34;19.70;74.30
81951;DHT22;71452;52.562;5.642;2023-09-12T04:28:04;19.70;74.30
81951;DHT22;71452;52.562;5.642;2023-09-12T04:30:33;19.70;74.30
81951;DHT22;71452;52.562;5.642;2023-09-12T04:33:02;19.70;74.20
81951;DHT22;71452;52.562;5.642;2023-09-12T04:35:33;19.70;74.20
81951;DHT22;71452;52.562;5.642;2023-09-12T04:38:04;19.70;74.30
81951;DHT22;71452;52.562;5.642;2023-09-12T04:40:33;19.60;74.40
81951;DHT22;71452;52.562;5.642;2023-09-12T04:43:04;19.60;74.40
81951;DHT22;71452;52.562;5.642;2023-09-12T04:45:33;19.60;74.40
81951;DHT22;71452;52.562;5.642;2023-09-12T04:48:03;19.60;74.30
81951;DHT22;71452;52.562;5.642;2023-09-12T04:50:32;19.60;74.40
81951;DHT22;71452;52.562;5.642;2023-09-12T04:53:04;19.60;74.50
81951;DHT22;71452;52.562;5.642;2023-09-12T04:55:35;19.60;74.60
81951;DHT22;71452;52.562;5.642;2023-09-12T04:58:05;19.70;74.60
81951;DHT22;71452;52.562;5.642;2023-09-12T05:00:34;19.70;74.60
81951;DHT22;71452;52.562;5.642;2023-09-12T05:03:04;19.70;74.70
81951;DHT22;71452;52.562;5.642;2023-09-12T05:05:34;19.70;74.70
81951;DHT22;71452;52.562;5.642;2023-09-12T05:08:08;19.60;74.60
81951;DHT22;71452;52.562;5.642;2023-09-12T05:10:38;19.60;74.80
81951;DHT22;71452;52.562;5.642;2023-09-12T05:13:07;19.60;74.80
81951;DHT22;71452;52.562;5.642;2023-09-12T05:15:37;19.60;74.80
81951;DHT22;71452;52.562;5.642;2023-09-12T05:18:07;19.60;74.80
81951;DHT22;71452;52.562;5.642;2023-09-12T05:20:36;19.70;74.80
81951;DHT22;71452;52.562;5.642;2023-09-12T05:23:08;19.70;74.80
81951;DHT22;71452;52.562;5.642;2023-09-12T05:25:37;19.70;74.80
81951;DHT22;71452;52.562;5.642;2023-09-12T05:28:06;19.70;74.80
81951;DHT22;71452;52.562;5.642;2023-09-12T05:30:36;19.70;74.70
81951;DHT22;71452;52.562;5.642;2023-09-12T05:33:05;19.70;74.60
81951;DHT22;71452;52.562;5.642;2023-09-12T05:35:34;19.70;74.70
81951;DHT22;71452;52.562;5.642;2023-09-12T05:38:03;19.70;74.90
81951;DHT22;71452;52.562;5.642;2023-09-12T05:40:35;19.70;75.00
81951;DHT22;71452;52.562;5.642;2023-09-12T05:43:04;19.70;75.00
81951;DHT22;71452;52.562;5.642;2023-09-12T05:45:33;19.70;75.00
81951;DHT22;71452;52.562;5.642;2023-09-12T05:48:05;19.70;75.00
81951;DHT22;71452;52.562;5.642;2023-09-12T05:50:36;19.70;75.10
81951;DHT22;71452;52.562;5.642;2023-09-12T05:53:05;19.70;75.20
81951;DHT22;71452;52.562;5.642;2023-09-12T05:55:37;19.80;75.20
81951;DHT22;71452;52.562;5.642;2023-09-12T05:58:06;19.80;75.20
81951;DHT22;71452;52.562;5.642;2023-09-12T06:00:36;19.90;75.10
81951;DHT22;71452;52.562;5.642;2023-09-12T06:03:05;19.90;75.10
81951;DHT22;71452;52.562;5.642;2023-09-12T06:05:34;20.00;75.00
81951;DHT22;71452;52.562;5.642;2023-09-12T06:08:04;20.00;75.00
81951;DHT22;71452;52.562;5.642;2023-09-12T06:10:33;20.00;75.10
81951;DHT22;71452;52.562;5.642;2023-09-12T06:13:05;20.00;75.10
81951;DHT22;71452;52.562;5.642;2023-09-12T06:15:34;20.00;75.00
81951;DHT22;71452;52.562;5.642;2023-09-12T06:18:04;20.10;74.90
81951;DHT22;71452;52.562;5.642;2023-09-12T06:20:33;20.10;74.90
81951;DHT22;71452;52.562;5.642;2023-09-12T06:23:02;20.10;75.00
81951;DHT22;71452;52.562;5.642;2023-09-12T06:25:32;20.20;75.00
81951;DHT22;71452;52.562;5.642;2023-09-12T06:28:01;20.30;74.80
81951;DHT22;71452;52.562;5.642;2023-09-12T06:30:33;20.30;74.80
81951;DHT22;71452;52.562;5.642;2023-09-12T06:33:02;20.40;74.80
81951;DHT22;71452;52.562;5.642;2023-09-12T06:35:32;20.50;75.00
81951;DHT22;71452;52.562;5.642;2023-09-12T06:38:02;20.60;74.70
81951;DHT22;71452;52.562;5.642;2023-09-12T06:40:29;20.70;74.40
81951;DHT22;71452;52.562;5.642;2023-09-12T06:42:58;20.70;74.20
81951;DHT22;71452;52.562;5.642;2023-09-12T06:45:27;20.70;74.20
81951;DHT22;71452;52.562;5.642;2023-09-12T06:48:01;20.70;74.30
81951;DHT22;71452;52.562;5.642;2023-09-12T06:50:30;20.70;74.30
81951;DHT22;71452;52.562;5.642;2023-09-12T06:52:59;20.60;74.30
81951;DHT22;71452;52.562;5.642;2023-09-12T06:55:29;20.70;74.50
81951;DHT22;71452;52.562;5.642;2023-09-12T06:57:59;20.70;74.50
81951;DHT22;71452;52.562;5.642;2023-09-12T07:00:28;20.70;74.60
81951;DHT22;71452;52.562;5.642;2023-09-12T07:02:57;20.70;74.60
81951;DHT22;71452;52.562;5.642;2023-09-12T07:05:29;20.70;74.70
81951;DHT22;71452;52.562;5.642;2023-09-12T07:07:58;20.80;74.70
81951;DHT22;71452;52.562;5.642;2023-09-12T07:10:27;20.80;74.60
81951;DHT22;71452;52.562;5.642;2023-09-12T07:12:57;20.80;74.70
81951;DHT22;71452;52.562;5.642;2023-09-12T07:15:26;20.90;74.70
81951;DHT22;71452;52.562;5.642;2023-09-12T07:17:55;20.90;74.70
81951;DHT22;71452;52.562;5.642;2023-09-12T07:20:25;20.90;74.80
81951;DHT22;71452;52.562;5.642;2023-09-12T07:22:57;21.00;74.90
81951;DHT22;71452;52.562;5.642;2023-09-12T07:25:26;21.10;74.90
81951;DHT22;71452;52.562;5.642;2023-09-12T07:27:55;21.10;74.70
81951;DHT22;71452;52.562;5.642;2023-09-12T07:30:24;21.10;74.70
81951;DHT22;71452;52.562;5.642;2023-09-12T07:32:55;21.10;74.70
81951;DHT22;71452;52.562;5.642;2023-09-12T07:35:24;21.10;74.70
81951;DHT22;71452;52.562;5.642;2023-09-12T07:37:55;21.10;74.70
81951;DHT22;71452;52.562;5.642;2023-09-12T07:40:24;21.20;74.70
81951;DHT22;71452;52.562;5.642;2023-09-12T07:42:54;21.30;74.80
81951;DHT22;71452;52.562;5.642;2023-09-12T07:45:23;21.40;74.60
81951;DHT22;71452;52.562;5.642;2023-09-12T07:47:53;21.50;74.40
81951;DHT22;71452;52.562;5.642;2023-09-12T07:50:22;21.50;74.50
81951;DHT22;71452;52.562;5.642;2023-09-12T07:52:51;21.70;74.40
81951;DHT22;71452;52.562;5.642;2023-09-12T07:55:23;21.80;74.50
81951;DHT22;71452;52.562;5.642;2023-09-12T07:57:52;21.90;74.10
81951;DHT22;71452;52.562;5.642;2023-09-12T08:00:21;22.00;73.60
81951;DHT22;71452;52.562;5.642;2023-09-12T08:02:50;22.10;73.40
81951;DHT22;71452;52.562;5.642;2023-09-12T08:05:19;22.10;73.40
81951;DHT22;71452;52.562;5.642;2023-09-12T08:07:48;22.10;73.40
81951;DHT22;71452;52.562;5.642;2023-09-12T08:10:17;22.10;73.30
81951;DHT22;71452;52.562;5.642;2023-09-12T08:12:48;22.10;73.10
81951;DHT22;71452;52.562;5.642;2023-09-12T08:15:17;22.00;73.10
81951;DHT22;71452;52.562;5.642;2023-09-12T08:17:46;22.00;73.20
81951;DHT22;71452;52.562;5.642;2023-09-12T08:20:18;22.00;73.50
81951;DHT22;71452;52.562;5.642;2023-09-12T08:22:48;22.00;73.60
81951;DHT22;71452;52.562;5.642;2023-09-12T08:25:17;22.10;73.50
81951;DHT22;71452;52.562;5.642;2023-09-12T08:27:49;22.10;73.50
81951;DHT22;71452;52.562;5.642;2023-09-12T08:30:18;22.10;73.50
81951;DHT22;71452;52.562;5.642;2023-09-12T08:32:47;22.20;73.60
81951;DHT22;71452;52.562;5.642;2023-09-12T08:35:16;22.20;73.40
81951;DHT22;71452;52.562;5.642;2023-09-12T08:37:45;22.30;73.50
81951;DHT22;71452;52.562;5.642;2023-09-12T08:40:14;22.30;73.50
81951;DHT22;71452;52.562;5.642;2023-09-12T08:42:44;22.50;73.40
81951;DHT22;71452;52.562;5.642;2023-09-12T08:45:17;22.50;73.30
81951;DHT22;71452;52.562;5.642;2023-09-12T08:47:51;22.60;73.20
81951;DHT22;71452;52.562;5.642;2023-09-12T08:50:21;22.60;73.00
81951;DHT22;71452;52.562;5.642;2023-09-12T08:52:51;22.60;72.70
81951;DHT22;71452;52.562;5.642;2023-09-12T08:55:20;22.70;72.70
81951;DHT22;71452;52.562;5.642;2023-09-12T08:57:50;22.70;72.80
81951;DHT22;71452;52.562;5.642;2023-09-12T09:00:23;22.80;72.80
81951;DHT22;71452;52.562;5.642;2023-09-12T09:02:53;22.80;72.60
81951;DHT22;71452;52.562;5.642;2023-09-12T09:05:24;22.90;72.50
81951;DHT22;71452;52.562;5.642;2023-09-12T09:07:55;23.10;72.50
81951;DHT22;71452;52.562;5.642;2023-09-12T09:10:24;23.30;72.10
81951;DHT22;71452;52.562;5.642;2023-09-12T09:12:58;23.50;71.80
81951;DHT22;71452;52.562;5.642;2023-09-12T09:15:30;23.70;71.20
81951;DHT22;71452;52.562;5.642;2023-09-12T09:18:02;23.80;70.70
81951;DHT22;71452;52.562;5.642;2023-09-12T09:20:33;23.90;70.50
81951;DHT22;71452;52.562;5.642;2023-09-12T09:23:04;24.00;69.70
81951;DHT22;71452;52.562;5.642;2023-09-12T09:25:36;24.00;69.90
81951;DHT22;71452;52.562;5.642;2023-09-12T09:28:16;23.90;70.00
81951;DHT22;71452;52.562;5.642;2023-09-12T09:30:49;24.00;69.70
81951;DHT22;71452;52.562;5.642;2023-09-12T09:33:20;23.90;69.40
81951;DHT22;71452;52.562;5.642;2023-09-12T09:35:50;23.90;69.40
81951;DHT22;71452;52.562;5.642;2023-09-12T09:38:20;23.90;69.80
81951;DHT22;71452;52.562;5.642;2023-09-12T09:40:49;24.00;69.70
81951;DHT22;71452;52.562;5.642;2023-09-12T09:43:19;24.10;69.40
81951;DHT22;71452;52.562;5.642;2023-09-12T09:45:53;24.20;69.70
81951;DHT22;71452;52.562;5.642;2023-09-12T09:48:23;24.40;68.60
81951;DHT22;71452;52.562;5.642;2023-09-12T09:50:53;24.60;68.50
81951;DHT22;71452;52.562;5.642;2023-09-12T09:53:29;24.80;67.40
81951;DHT22;71452;52.562;5.642;2023-09-12T09:56:11;25.00;67.20
81951;DHT22;71452;52.562;5.642;2023-09-12T09:58:46;25.20;66.80
81951;DHT22;71452;52.562;5.642;2023-09-12T10:01:21;25.20;66.70
81951;DHT22;71452;52.562;5.642;2023-09-12T10:03:51;25.20;66.70
81951;DHT22;71452;52.562;5.642;2023-09-12T10:06:21;25.20;66.50
81951;DHT22;71452;52.562;5.642;2023-09-12T10:08:51;25.10;67.00
81951;DHT22;71452;52.562;5.642;2023-09-12T10:11:22;25.00;66.80
81951;DHT22;71452;52.562;5.642;2023-09-12T10:13:53;25.00;67.10
81951;DHT22;71452;52.562;5.642;2023-09-12T10:16:30;24.90;66.80
81951;DHT22;71452;52.562;5.642;2023-09-12T10:19:19;24.80;66.90
81951;DHT22;71452;52.562;5.642;2023-09-12T10:21:49;24.80;66.80
81951;DHT22;71452;52.562;5.642;2023-09-12T10:24:19;24.80;67.00
81951;DHT22;71452;52.562;5.642;2023-09-12T10:26:50;24.80;66.90
81951;DHT22;71452;52.562;5.642;2023-09-12T10:29:21;24.70;67.20
81951;DHT22;71452;52.562;5.642;2023-09-12T10:31:53;24.70;67.50
81951;DHT22;71452;52.562;5.642;2023-09-12T10:34:25;24.70;67.60
81951;DHT22;71452;52.562;5.642;2023-09-12T10:36:55;24.80;67.50
81951;DHT22;71452;52.562;5.642;2023-09-12T10:39:27;24.90;67.70
81951;DHT22;71452;52.562;5.642;2023-09-12T10:41:58;25.00;67.80
81951;DHT22;71452;52.562;5.642;2023-09-12T10:44:28;25.20;67.20
81951;DHT22;71452;52.562;5.642;2023-09-12T10:47:01;25.30;67.10
81951;DHT22;71452;52.562;5.642;2023-09-12T10:49:31;25.40;66.80
81951;DHT22;71452;52.562;5.642;2023-09-12T10:52:00;25.40;66.60
81951;DHT22;71452;52.562;5.642;2023-09-12T10:54:36;25.50;66.60
81951;DHT22;71452;52.562;5.642;2023-09-12T10:57:06;25.60;66.00
81951;DHT22;71452;52.562;5.642;2023-09-12T11:00:10;25.60;65.50
81951;DHT22;71452;52.562;5.642;2023-09-12T11:02:42;25.60;65.50
81951;DHT22;71452;52.562;5.642;2023-09-12T11:05:37;25.60;66.00
81951;DHT22;71452;52.562;5.642;2023-09-12T11:08:06;25.70;65.50
81951;DHT22;71452;52.562;5.642;2023-09-12T11:10:35;25.80;65.20
81951;DHT22;71452;52.562;5.642;2023-09-12T11:13:04;25.90;65.00
81951;DHT22;71452;52.562;5.642;2023-09-12T11:15:33;26.00;64.20
81951;DHT22;71452;52.562;5.642;2023-09-12T11:18:08;26.00;63.20
81951;DHT22;71452;52.562;5.642;2023-09-12T11:20:51;26.00;63.20
81951;DHT22;71452;52.562;5.642;2023-09-12T11:23:21;25.80;63.40
81951;DHT22;71452;52.562;5.642;2023-09-12T11:26:02;25.80;64.00
81951;DHT22;71452;52.562;5.642;2023-09-12T11:28:33;25.80;64.20
81951;DHT22;71452;52.562;5.642;2023-09-12T11:31:02;25.80;64.60
81951;DHT22;71452;52.562;5.642;2023-09-12T11:33:33;25.60;64.70
81951;DHT22;71452;52.562;5.642;2023-09-12T11:36:03;25.60;64.60
81951;DHT22;71452;52.562;5.642;2023-09-12T11:38:34;25.60;64.40
81951;DHT22;71452;52.562;5.642;2023-09-12T11:41:03;25.70;64.70
81951;DHT22;71452;52.562;5.642;2023-09-12T11:43:33;25.60;64.20
81951;DHT22;71452;52.562;5.642;2023-09-12T11:46:07;25.60;64.50
81951;DHT22;71452;52.562;5.642;2023-09-12T11:48:39;25.60;64.80
81951;DHT22;71452;52.562;5.642;2023-09-12T11:51:08;25.60;64.70
81951;DHT22;71452;52.562;5.642;2023-09-12T11:53:37;25.80;64.50
81951;DHT22;71452;52.562;5.642;2023-09-12T11:56:06;25.80;64.40
81951;DHT22;71452;52.562;5.642;2023-09-12T11:58:35;25.80;64.50
81951;DHT22;71452;52.562;5.642;2023-09-12T12:01:04;25.90;64.30
81951;DHT22;71452;52.562;5.642;2023-09-12T12:03:33;26.00;64.60
81951;DHT22;71452;52.562;5.642;2023-09-12T12:06:05;26.00;64.50
81951;DHT22;71452;52.562;5.642;2023-09-12T12:08:36;26.10;64.70
81951;DHT22;71452;52.562;5.642;2023-09-12T12:11:06;26.10;64.50
81951;DHT22;71452;52.562;5.642;2023-09-12T12:13:35;26.20;63.90
81951;DHT22;71452;52.562;5.642;2023-09-12T12:16:14;26.10;64.00
81951;DHT22;71452;52.562;5.642;2023-09-12T12:18:41;26.00;64.00
81951;DHT22;71452;52.562;5.642;2023-09-12T12:21:13;25.80;64.20
81951;DHT22;71452;52.562;5.642;2023-09-12T12:23:42;25.70;64.60
81951;DHT22;71452;52.562;5.642;2023-09-12T12:26:11;25.70;64.70
81951;DHT22;71452;52.562;5.642;2023-09-12T12:28:40;25.70;64.50
81951;DHT22;71452;52.562;5.642;2023-09-12T12:31:10;25.70;64.40
81951;DHT22;71452;52.562;5.642;2023-09-12T12:33:39;25.80;63.20
81951;DHT22;71452;52.562;5.642;2023-09-12T12:36:08;25.60;63.50
81951;DHT22;71452;52.562;5.642;2023-09-12T12:38:39;25.60;63.30
81951;DHT22;71452;52.562;5.642;2023-09-12T12:41:09;25.60;63.50
81951;DHT22;71452;52.562;5.642;2023-09-12T12:43:39;25.70;63.50
81951;DHT22;71452;52.562;5.642;2023-09-12T12:46:11;25.80;63.30
81951;DHT22;71452;52.562;5.642;2023-09-12T12:48:43;25.80;63.30
81951;DHT22;71452;52.562;5.642;2023-09-12T12:51:14;25.80;62.60
81951;DHT22;71452;52.562;5.642;2023-09-12T12:53:48;25.80;62.80
81951;DHT22;71452;52.562;5.642;2023-09-12T12:56:28;25.60;62.70
81951;DHT22;71452;52.562;5.642;2023-09-12T12:58:59;25.60;63.00
81951;DHT22;71452;52.562;5.642;2023-09-12T13:01:29;25.60;63.70
81951;DHT22;71452;52.562;5.642;2023-09-12T13:03:58;25.60;63.90
81951;DHT22;71452;52.562;5.642;2023-09-12T13:06:27;25.60;63.80
81951;DHT22;71452;52.562;5.642;2023-09-12T13:08:58;25.50;63.90
81951;DHT22;71452;52.562;5.642;2023-09-12T13:11:33;25.50;63.40
81951;DHT22;71452;52.562;5.642;2023-09-12T13:14:03;25.40;63.60
81951;DHT22;71452;52.562;5.642;2023-09-12T13:16:37;25.40;63.90
81951;DHT22;71452;52.562;5.642;2023-09-12T13:19:07;25.40;63.90
81951;DHT22;71452;52.562;5.642;2023-09-12T13:21:37;25.40;64.10
81951;DHT22;71452;52.562;5.642;2023-09-12T13:24:06;25.40;63.70
81951;DHT22;71452;52.562;5.642;2023-09-12T13:26:38;25.40;63.90
81951;DHT22;71452;52.562;5.642;2023-09-12T13:29:07;25.40;63.70
81951;DHT22;71452;52.562;5.642;2023-09-12T13:31:36;25.40;63.70
81951;DHT22;71452;52.562;5.642;2023-09-12T13:34:05;25.40;64.00
81951;DHT22;71452;52.562;5.642;2023-09-12T13:36:34;25.50;64.00
81951;DHT22;71452;52.562;5.642;2023-09-12T13:39:04;25.50;64.00
81951;DHT22;71452;52.562;5.642;2023-09-12T13:41:33;25.50;64.20
81951;DHT22;71452;52.562;5.642;2023-09-12T13:44:05;25.50;63.50
81951;DHT22;71452;52.562;5.642;2023-09-12T13:46:34;25.40;64.10
81951;DHT22;71452;52.562;5.642;2023-09-12T13:49:03;25.30;64.70
81951;DHT22;71452;52.562;5.642;2023-09-12T13:51:32;25.20;64.80
81951;DHT22;71452;52.562;5.642;2023-09-12T13:54:02;25.30;64.90
81951;DHT22;71452;52.562;5.642;2023-09-12T13:56:44;25.30;65.00
81951;DHT22;71452;52.562;5.642;2023-09-12T13:59:15;25.40;64.60
81951;DHT22;71452;52.562;5.642;2023-09-12T14:01:46;25.40;64.80
81951;DHT22;71452;52.562;5.642;2023-09-12T14:04:15;25.40;65.00
81951;DHT22;71452;52.562;5.642;2023-09-12T14:06:44;25.40;65.10
81951;DHT22;71452;52.562;5.642;2023-09-12T14:09:13;25.40;64.80
81951;DHT22;71452;52.562;5.642;2023-09-12T14:11:42;25.40;64.50
81951;DHT22;71452;52.562;5.642;2023-09-12T14:14:15;25.40;64.70
81951;DHT22;71452;52.562;5.642;2023-09-12T14:16:50;25.30;65.10
81951;DHT22;71452;52.562;5.642;2023-09-12T14:19:20;25.30;65.30
81951;DHT22;71452;52.562;5.642;2023-09-12T14:21:49;25.30;65.60
81951;DHT22;71452;52.562;5.642;2023-09-12T14:24:18;25.40;66.30
81951;DHT22;71452;52.562;5.642;2023-09-12T14:26:47;25.50;66.90
81951;DHT22;71452;52.562;5.642;2023-09-12T14:29:19;25.60;66.30
81951;DHT22;71452;52.562;5.642;2023-09-12T14:31:49;25.60;66.60
81951;DHT22;71452;52.562;5.642;2023-09-12T14:34:23;25.60;66.20
81951;DHT22;71452;52.562;5.642;2023-09-12T14:36:54;25.60;66.40
81951;DHT22;71452;52.562;5.642;2023-09-12T14:39:23;25.50;66.20
81951;DHT22;71452;52.562;5.642;2023-09-12T14:41:52;25.60;65.50
81951;DHT22;71452;52.562;5.642;2023-09-12T14:44:25;25.50;65.50
81951;DHT22;71452;52.562;5.642;2023-09-12T14:46:58;25.50;65.40
81951;DHT22;71452;52.562;5.642;2023-09-12T14:49:28;25.40;65.30
81951;DHT22;71452;52.562;5.642;2023-09-12T14:51:57;25.40;64.70
81951;DHT22;71452;52.562;5.642;2023-09-12T14:54:26;25.30;64.70
81951;DHT22;71452;52.562;5.642;2023-09-12T14:56:55;25.30;65.10
81951;DHT22;71452;52.562;5.642;2023-09-12T14:59:26;25.20;64.30
81951;DHT22;71452;52.562;5.642;2023-09-12T15:01:55;25.10;64.80
81951;DHT22;71452;52.562;5.642;2023-09-12T15:04:24;25.00;65.00
81951;DHT22;71452;52.562;5.642;2023-09-12T15:06:53;25.00;65.00
81951;DHT22;71452;52.562;5.642;2023-09-12T15:09:22;25.00;65.00
81951;DHT22;71452;52.562;5.642;2023-09-12T15:11:51;25.00;64.90
81951;DHT22;71452;52.562;5.642;2023-09-12T15:14:20;24.90;64.90
81951;DHT22;71452;52.562;5.642;2023-09-12T15:16:52;24.80;65.20
81951;DHT22;71452;52.562;5.642;2023-09-12T15:19:23;24.70;65.50
81951;DHT22;71452;52.562;5.642;2023-09-12T15:21:52;24.80;65.60
81951;DHT22;71452;52.562;5.642;2023-09-12T15:24:21;24.70;65.60
81951;DHT22;71452;52.562;5.642;2023-09-12T15:26:50;24.70;65.80
81951;DHT22;71452;52.562;5.642;2023-09-12T15:29:19;24.60;66.00
81951;DHT22;71452;52.562;5.642;2023-09-12T15:31:52;24.60;66.10
81951;DHT22;71452;52.562;5.642;2023-09-12T15:34:21;24.60;66.20
81951;DHT22;71452;52.562;5.642;2023-09-12T15:40:05;24.50;66.70
81951;DHT22;71452;52.562;5.642;2023-09-12T15:42:34;24.50;66.90
81951;DHT22;71452;52.562;5.642;2023-09-12T15:45:05;24.50;67.10
81951;DHT22;71452;52.562;5.642;2023-09-12T15:47:37;24.40;67.10
81951;DHT22;71452;52.562;5.642;2023-09-12T15:50:07;24.40;66.80
81951;DHT22;71452;52.562;5.642;2023-09-12T15:52:36;24.20;66.60
81951;DHT22;71452;52.562;5.642;2023-09-12T15:55:08;24.20;66.30